createdAt,value
2023-05-21T00:00:09.541Z,15.02
2023-05-21T00:02:36.594Z,15.01
2023-05-21T00:05:04.235Z,14.99
2023-05-21T00:07:33.969Z,14.97
2023-05-21T00:10:00.840Z,14.96
2023-05-21T00:12:27.677Z,14.95
2023-05-21T00:14:54.581Z,14.94
2023-05-21T00:17:21.433Z,14.96
2023-05-21T00:19:50.316Z,14.95
2023-05-21T00:22:17.228Z,14.94
2023-05-21T00:24:46.137Z,14.92
2023-05-21T00:27:13.817Z,14.91
2023-05-21T00:29:42.929Z,14.89
2023-05-21T00:32:11.249Z,14.88
2023-05-21T00:34:38.502Z,14.88
2023-05-21T00:37:05.403Z,14.87
2023-05-21T00:39:32.201Z,14.88
2023-05-21T00:42:00.595Z,14.85
2023-05-21T00:44:28.365Z,14.84
2023-05-21T00:46:55.222Z,14.82
2023-05-21T00:49:24.650Z,14.78
2023-05-21T00:51:52.152Z,14.79
2023-05-21T00:54:19.137Z,14.77
2023-05-21T00:56:47.112Z,14.75
2023-05-21T00:59:16.456Z,14.75
2023-05-21T01:01:46.722Z,14.74
2023-05-21T01:04:13.663Z,14.71
2023-05-21T01:06:40.545Z,14.72
2023-05-21T01:09:07.512Z,14.70
2023-05-21T01:11:40.517Z,14.69
2023-05-21T01:14:09.552Z,14.66
2023-05-21T01:16:38.479Z,14.67
2023-05-21T01:19:07.078Z,14.66
2023-05-21T01:21:37.577Z,14.66
2023-05-21T01:24:05.754Z,14.63
2023-05-21T01:26:33.822Z,14.61
2023-05-21T01:29:00.625Z,14.58
2023-05-21T01:31:34.421Z,14.56
2023-05-21T01:34:05.802Z,14.55
2023-05-21T01:36:41.058Z,14.52
2023-05-21T01:39:14.671Z,14.48
2023-05-21T01:41:45.173Z,14.46
2023-05-21T01:44:13.688Z,14.46
2023-05-21T01:46:40.733Z,14.46
2023-05-21T01:49:09.059Z,14.44
2023-05-21T01:51:36.633Z,14.43
2023-05-21T01:54:03.856Z,14.41
2023-05-21T01:56:34.042Z,14.41
2023-05-21T01:59:01.044Z,14.41
2023-05-21T02:01:30.503Z,14.41
2023-05-21T02:03:58.404Z,14.39
2023-05-21T02:06:25.346Z,14.38
2023-05-21T02:08:52.261Z,14.36
2023-05-21T02:11:19.118Z,14.35
2023-05-21T02:13:46.357Z,14.32
2023-05-21T02:16:14.908Z,14.32
2023-05-21T02:18:44.854Z,14.30
2023-05-21T02:21:11.889Z,14.30
2023-05-21T02:23:38.893Z,14.28
2023-05-21T02:26:05.778Z,14.26
2023-05-21T02:28:32.951Z,14.23
2023-05-21T02:31:00.339Z,14.23
2023-05-21T02:33:27.268Z,14.21
2023-05-21T02:35:54.191Z,14.18
2023-05-21T02:38:23.246Z,14.17
2023-05-21T02:40:53.513Z,14.13
2023-05-21T02:43:20.640Z,14.14
2023-05-21T02:45:47.974Z,14.12
2023-05-21T02:48:14.949Z,14.12
2023-05-21T02:50:41.848Z,14.09
2023-05-21T02:53:08.750Z,14.08
2023-05-21T02:55:35.850Z,14.08
2023-05-21T02:58:03.058Z,14.05
2023-05-21T03:00:29.858Z,14.03
2023-05-21T03:02:56.888Z,14.02
2023-05-21T03:05:24.575Z,14.01
2023-05-21T03:07:51.548Z,14.01
2023-05-21T03:10:18.429Z,14.00
2023-05-21T03:12:45.742Z,13.99
2023-05-21T03:15:15.008Z,13.98
2023-05-21T03:17:44.833Z,13.97
2023-05-21T03:20:16.688Z,13.96
2023-05-21T03:22:45.098Z,13.98
2023-05-21T03:25:12.834Z,13.97
2023-05-21T03:27:39.796Z,13.97
2023-05-21T03:30:07.199Z,13.98
2023-05-21T03:32:34.160Z,13.97
2023-05-21T03:35:01.192Z,13.97
2023-05-21T03:37:27.983Z,13.99
2023-05-21T03:39:54.789Z,13.98
2023-05-21T03:42:21.690Z,13.98
2023-05-21T03:44:48.560Z,13.98
2023-05-21T03:47:15.482Z,13.99
2023-05-21T03:49:42.310Z,14.02
2023-05-21T03:52:09.166Z,14.01
2023-05-21T03:54:36.157Z,14.03
2023-05-21T03:57:02.934Z,14.03
2023-05-21T03:59:29.784Z,14.04
2023-05-21T04:01:56.584Z,14.04
2023-05-21T04:04:23.508Z,14.04
2023-05-21T04:06:51.776Z,14.05
2023-05-21T04:09:18.694Z,14.05
2023-05-21T04:11:45.484Z,14.05
2023-05-21T04:14:12.930Z,14.05
2023-05-21T04:16:39.854Z,14.04
2023-05-21T04:19:06.847Z,14.04
2023-05-21T04:21:33.825Z,14.04
2023-05-21T04:24:01.056Z,14.07
2023-05-21T04:26:28.225Z,14.09
2023-05-21T04:28:55.584Z,14.08
2023-05-21T04:31:23.464Z,14.13
2023-05-21T04:33:50.958Z,14.12
2023-05-21T04:36:17.761Z,14.13
2023-05-21T04:38:44.644Z,14.13
2023-05-21T04:41:11.497Z,14.13
2023-05-21T04:43:38.445Z,14.15
2023-05-21T04:46:06.164Z,14.14
2023-05-21T04:48:32.947Z,14.14
2023-05-21T04:51:00.036Z,14.16
2023-05-21T04:53:26.858Z,14.18
2023-05-21T04:55:53.662Z,14.21
2023-05-21T04:58:20.628Z,14.21
2023-05-21T05:00:47.641Z,14.23
2023-05-21T05:03:14.795Z,14.26
2023-05-21T05:05:42.151Z,14.28
2023-05-21T05:08:09.093Z,14.30
2023-05-21T05:10:36.332Z,14.33
2023-05-21T05:13:03.597Z,14.36
2023-05-21T05:15:30.406Z,14.41
2023-05-21T05:17:57.338Z,14.42
2023-05-21T05:20:24.217Z,14.46
2023-05-21T05:22:51.343Z,14.49
2023-05-21T05:25:18.344Z,14.55
2023-05-21T05:27:45.200Z,14.56
2023-05-21T05:30:12.338Z,14.60
2023-05-21T05:32:39.197Z,14.59
2023-05-21T05:35:07.095Z,14.64
2023-05-21T05:37:33.887Z,14.67
2023-05-21T05:40:00.808Z,14.73
2023-05-21T05:42:27.591Z,14.71
2023-05-21T05:44:54.445Z,14.76
2023-05-21T05:47:21.920Z,14.81
2023-05-21T05:49:49.039Z,14.82
2023-05-21T05:52:16.298Z,14.85
2023-05-21T05:54:43.037Z,14.91
2023-05-21T05:57:09.889Z,14.90
2023-05-21T05:59:36.923Z,14.90
2023-05-21T06:02:03.987Z,14.90
2023-05-21T06:04:31.123Z,15.00
2023-05-21T06:06:58.064Z,15.03
2023-05-21T06:09:25.531Z,15.15
2023-05-21T06:11:52.700Z,15.34
2023-05-21T06:14:19.524Z,15.57
2023-05-21T06:16:46.553Z,15.80
2023-05-21T06:19:13.675Z,15.94
2023-05-21T06:21:40.756Z,16.26
2023-05-21T06:24:07.651Z,16.70
2023-05-21T06:26:34.533Z,17.17
2023-05-21T06:29:01.491Z,17.35
2023-05-21T06:31:28.912Z,17.24
2023-05-21T06:33:55.874Z,17.05
2023-05-21T06:36:23.213Z,17.07
2023-05-21T06:38:50.062Z,17.30
2023-05-21T06:41:16.945Z,17.32
2023-05-21T06:43:43.764Z,17.30
2023-05-21T06:46:10.611Z,17.28
2023-05-21T06:48:37.527Z,17.25
2023-05-21T06:51:04.511Z,17.30
2023-05-21T06:53:31.546Z,17.37
2023-05-21T06:55:58.368Z,17.50
2023-05-21T06:58:25.746Z,17.53
2023-05-21T07:00:52.613Z,17.45
2023-05-21T07:03:19.750Z,17.22
2023-05-21T07:05:47.016Z,17.21
2023-05-21T07:08:13.913Z,17.24
2023-05-21T07:10:40.958Z,17.33
2023-05-21T07:13:07.830Z,17.31
2023-05-21T07:15:34.691Z,17.36
2023-05-21T07:18:01.608Z,17.46
2023-05-21T07:20:28.518Z,17.53
2023-05-21T07:22:55.805Z,17.61
2023-05-21T07:25:22.609Z,17.77
2023-05-21T07:27:49.459Z,17.89
2023-05-21T07:30:16.564Z,17.97
2023-05-21T07:32:43.531Z,18.05
2023-05-21T07:35:10.438Z,18.19
2023-05-21T07:37:37.317Z,18.35
2023-05-21T07:40:04.510Z,18.56
2023-05-21T07:42:31.496Z,18.58
2023-05-21T07:44:58.361Z,18.60
2023-05-21T07:47:25.370Z,18.63
2023-05-21T07:49:52.267Z,18.72
2023-05-21T07:52:19.192Z,18.79
2023-05-21T07:54:46.045Z,18.92
2023-05-21T07:57:12.860Z,19.16
2023-05-21T07:59:39.762Z,19.35
2023-05-21T08:02:06.606Z,19.35
2023-05-21T08:04:33.515Z,19.34
2023-05-21T08:07:00.479Z,19.38
2023-05-21T08:09:27.378Z,19.35
2023-05-21T08:11:54.232Z,19.29
2023-05-21T08:14:21.023Z,19.20
2023-05-21T08:16:47.921Z,19.20
2023-05-21T08:19:14.838Z,19.22
2023-05-21T08:21:41.755Z,19.21
2023-05-21T08:24:08.679Z,19.43
2023-05-21T08:26:36.618Z,19.47
2023-05-21T08:29:03.530Z,19.69
2023-05-21T08:31:30.457Z,19.88
2023-05-21T08:33:57.481Z,19.85
2023-05-21T08:36:25.026Z,19.66
2023-05-21T08:38:51.815Z,19.56
2023-05-21T08:41:22.294Z,19.50
2023-05-21T08:43:56.053Z,19.66
2023-05-21T08:46:25.151Z,19.99
2023-05-21T08:48:55.259Z,19.97
2023-05-21T08:51:22.682Z,20.07
2023-05-21T08:53:51.184Z,20.26
2023-05-21T08:56:18.429Z,20.35
2023-05-21T08:58:46.935Z,20.56
2023-05-21T09:01:14.485Z,20.87
2023-05-21T09:03:42.594Z,21.07
2023-05-21T09:06:16.280Z,20.99
2023-05-21T09:08:54.447Z,21.29
2023-05-21T09:11:21.796Z,21.55
2023-05-21T09:13:50.097Z,21.73
2023-05-21T09:16:17.136Z,22.05
2023-05-21T09:18:44.062Z,21.99
2023-05-21T09:21:28.425Z,21.84
2023-05-21T09:23:57.242Z,21.83
2023-05-21T09:26:24.638Z,21.86
2023-05-21T09:28:52.588Z,21.94
2023-05-21T09:31:19.616Z,21.92
2023-05-21T09:33:48.298Z,22.03
2023-05-21T09:36:15.379Z,22.43
2023-05-21T09:38:42.317Z,22.46
2023-05-21T09:41:09.549Z,22.42
2023-05-21T09:43:36.950Z,22.20
2023-05-21T09:46:03.975Z,22.20
2023-05-21T09:48:40.948Z,22.23
2023-05-21T09:51:12.136Z,22.54
2023-05-21T09:53:53.462Z,22.62
2023-05-21T09:56:29.636Z,22.62
2023-05-21T09:58:58.580Z,22.60
2023-05-21T10:01:25.705Z,22.88
2023-05-21T10:03:57.645Z,22.99
2023-05-21T10:06:27.979Z,23.01
2023-05-21T10:09:01.583Z,22.91
2023-05-21T10:11:33.964Z,22.80
2023-05-21T10:14:09.331Z,22.91
2023-05-21T10:16:37.846Z,23.06
2023-05-21T10:19:11.130Z,22.95
2023-05-21T10:21:40.094Z,23.02
2023-05-21T10:24:08.666Z,23.21
2023-05-21T10:26:36.806Z,23.30
2023-05-21T10:29:03.770Z,23.35
2023-05-21T10:31:32.076Z,23.45
2023-05-21T10:34:00.588Z,23.45
2023-05-21T10:36:31.873Z,23.52
2023-05-21T10:39:00.636Z,23.84
2023-05-21T10:41:31.962Z,23.86
2023-05-21T10:44:04.752Z,24.08
2023-05-21T10:46:40.863Z,24.19
2023-05-21T10:49:44.979Z,24.35
2023-05-21T10:52:14.679Z,24.24
2023-05-21T10:55:17.864Z,24.42
2023-05-21T10:58:32.454Z,24.64
2023-05-21T11:01:01.835Z,24.77
2023-05-21T11:03:30.445Z,24.80
2023-05-21T11:05:57.787Z,24.81
2023-05-21T11:08:37.689Z,25.08
2023-05-21T11:11:05.344Z,25.16
2023-05-21T11:13:51.851Z,24.93
2023-05-21T11:16:18.802Z,24.96
2023-05-21T11:18:46.182Z,24.99
2023-05-21T11:21:21.269Z,25.04
2023-05-21T11:23:50.983Z,24.63
2023-05-21T11:26:25.364Z,24.52
2023-05-21T11:29:04.513Z,24.61
2023-05-21T11:31:39.042Z,24.79
2023-05-21T11:34:16.309Z,24.78
2023-05-21T11:36:48.042Z,24.96
2023-05-21T11:39:22.367Z,25.02
2023-05-21T11:41:54.139Z,25.18
2023-05-21T11:44:42.970Z,25.36
2023-05-21T11:47:18.008Z,25.19
2023-05-21T11:49:46.393Z,24.93
2023-05-21T11:52:14.497Z,24.96
2023-05-21T11:54:50.937Z,25.02
2023-05-21T11:57:21.588Z,24.85
2023-05-21T11:59:51.757Z,24.87
2023-05-21T12:02:20.343Z,24.97
2023-05-21T12:04:49.065Z,25.16
2023-05-21T12:07:17.924Z,25.09
2023-05-21T12:09:44.845Z,25.03
2023-05-21T12:12:14.459Z,24.50
2023-05-21T12:14:45.723Z,24.37
2023-05-21T12:17:16.787Z,24.53
2023-05-21T12:19:44.423Z,24.63
2023-05-21T12:22:11.671Z,24.84
2023-05-21T12:24:39.144Z,24.94
2023-05-21T12:27:10.681Z,25.17
2023-05-21T12:29:39.126Z,25.36
2023-05-21T12:32:09.384Z,25.33
2023-05-21T12:34:41.525Z,25.29
2023-05-21T12:37:08.398Z,24.99
2023-05-21T12:39:45.353Z,24.90
2023-05-21T12:42:13.286Z,24.82
2023-05-21T12:44:49.969Z,24.77
2023-05-21T12:47:18.058Z,24.87
2023-05-21T12:49:48.316Z,25.25
2023-05-21T12:52:18.810Z,25.54
2023-05-21T12:54:50.951Z,25.79
2023-05-21T12:57:18.819Z,25.44
2023-05-21T12:59:48.017Z,25.05
2023-05-21T13:02:25.437Z,24.84
2023-05-21T13:04:59.126Z,24.74
2023-05-21T13:07:27.555Z,24.86
2023-05-21T13:09:55.512Z,25.08
2023-05-21T13:12:23.975Z,25.19
2023-05-21T13:14:51.785Z,25.51
2023-05-21T13:17:19.893Z,25.71
2023-05-21T13:20:12.969Z,25.85
2023-05-21T13:22:47.101Z,25.88
2023-05-21T13:25:16.918Z,25.84
2023-05-21T13:27:44.680Z,25.66
2023-05-21T13:30:12.212Z,25.53
2023-05-21T13:32:40.591Z,25.31
2023-05-21T13:35:08.673Z,25.40
2023-05-21T13:37:36.465Z,25.44
2023-05-21T13:40:07.669Z,25.39
2023-05-21T13:42:35.979Z,25.20
2023-05-21T13:45:02.890Z,25.14
2023-05-21T13:47:29.961Z,25.16
2023-05-21T13:49:56.925Z,25.16
2023-05-21T13:52:23.934Z,25.25
2023-05-21T13:54:50.901Z,25.26
2023-05-21T13:57:17.870Z,25.25
2023-05-21T13:59:44.882Z,25.37
2023-05-21T14:02:12.284Z,25.45
2023-05-21T14:04:39.822Z,25.30
2023-05-21T14:07:07.372Z,25.09
2023-05-21T14:09:34.817Z,25.03
2023-05-21T14:12:01.824Z,25.07
2023-05-21T14:14:28.782Z,25.11
2023-05-21T14:16:55.814Z,25.09
2023-05-21T14:19:23.018Z,25.20
2023-05-21T14:21:54.560Z,25.14
2023-05-21T14:24:21.477Z,25.15
2023-05-21T14:26:48.489Z,25.26
2023-05-21T14:29:15.680Z,25.45
2023-05-21T14:31:42.747Z,25.31
2023-05-21T14:34:09.742Z,25.19
2023-05-21T14:36:36.689Z,25.40
2023-05-21T14:39:04.468Z,25.38
2023-05-21T14:41:31.614Z,25.36
2023-05-21T14:43:58.690Z,25.16
2023-05-21T14:46:26.085Z,25.34
2023-05-21T14:48:53.238Z,25.24
2023-05-21T14:51:20.625Z,25.34
2023-05-21T14:53:47.707Z,25.31
2023-05-21T14:56:14.732Z,25.21
2023-05-21T14:58:41.656Z,25.06
2023-05-21T15:01:08.908Z,24.79
2023-05-21T15:03:36.345Z,24.71
2023-05-21T15:06:03.749Z,24.72
2023-05-21T15:08:30.732Z,24.78
2023-05-21T15:10:57.659Z,24.77
2023-05-21T15:13:24.704Z,24.66
2023-05-21T15:15:51.822Z,24.66
2023-05-21T15:18:18.934Z,24.69
2023-05-21T15:20:46.008Z,24.68
2023-05-21T15:23:17.255Z,24.46
2023-05-21T15:25:45.687Z,24.31
2023-05-21T15:28:12.986Z,24.32
2023-05-21T15:30:40.657Z,24.30
2023-05-21T15:33:07.737Z,24.22
2023-05-21T15:35:38.408Z,24.07
2023-05-21T15:38:05.835Z,23.96
2023-05-21T15:40:32.985Z,23.91
2023-05-21T15:43:00.340Z,23.82
2023-05-21T15:45:27.415Z,23.82
2023-05-21T15:47:54.599Z,23.68
2023-05-21T15:50:21.658Z,23.67
2023-05-21T15:52:50.367Z,23.69
2023-05-21T15:55:19.525Z,23.55
2023-05-21T15:57:46.419Z,23.38
2023-05-21T16:00:13.883Z,23.30
2023-05-21T16:02:42.135Z,23.39
2023-05-21T16:05:09.745Z,23.47
2023-05-21T16:07:38.430Z,23.44
2023-05-21T16:10:06.897Z,23.14
2023-05-21T16:12:33.969Z,22.90
2023-05-21T16:15:00.982Z,23.02
2023-05-21T16:17:28.001Z,23.12
2023-05-21T16:19:54.864Z,23.25
2023-05-21T16:22:23.439Z,23.13
2023-05-21T16:24:50.685Z,23.03
2023-05-21T16:27:17.619Z,22.99
2023-05-21T16:29:44.999Z,22.93
2023-05-21T16:32:14.099Z,22.92
2023-05-21T16:34:41.354Z,22.85
2023-05-21T16:37:09.813Z,22.66
2023-05-21T16:39:37.354Z,22.70
2023-05-21T16:42:04.611Z,22.66
2023-05-21T16:44:32.475Z,22.58
2023-05-21T16:47:00.286Z,22.58
2023-05-21T16:49:28.008Z,22.45
2023-05-21T16:51:55.011Z,22.37
2023-05-21T16:54:22.252Z,22.28
2023-05-21T16:56:49.309Z,22.27
2023-05-21T16:59:16.510Z,22.21
2023-05-21T17:01:43.859Z,22.14
2023-05-21T17:04:11.238Z,22.16
2023-05-21T17:06:38.290Z,22.25
2023-05-21T17:09:05.450Z,22.14
2023-05-21T17:11:32.595Z,22.09
2023-05-21T17:14:00.154Z,22.05
2023-05-21T17:16:27.214Z,22.00
2023-05-21T17:18:54.226Z,21.93
2023-05-21T17:21:21.311Z,21.80
2023-05-21T17:23:48.201Z,21.78
2023-05-21T17:26:15.329Z,21.79
2023-05-21T17:28:43.338Z,21.74
2023-05-21T17:31:10.669Z,21.66
2023-05-21T17:33:38.200Z,21.63
2023-05-21T17:36:05.480Z,21.51
2023-05-21T17:38:32.602Z,21.48
2023-05-21T17:40:59.645Z,21.42
2023-05-21T17:43:27.935Z,21.43
2023-05-21T17:45:55.033Z,21.37
2023-05-21T17:48:22.199Z,21.24
2023-05-21T17:50:49.188Z,21.11
2023-05-21T17:53:16.690Z,21.06
2023-05-21T17:55:44.006Z,21.02
2023-05-21T17:58:11.168Z,20.95
2023-05-21T18:00:38.274Z,20.90
2023-05-21T18:03:05.682Z,20.85
2023-05-21T18:05:32.672Z,20.84
2023-05-21T18:08:01.442Z,20.73
2023-05-21T18:10:28.935Z,20.68
2023-05-21T18:12:55.889Z,20.60
2023-05-21T18:15:22.913Z,20.55
2023-05-21T18:17:49.976Z,20.52
2023-05-21T18:20:17.255Z,20.46
2023-05-21T18:22:44.739Z,20.40
2023-05-21T18:25:11.764Z,20.38
2023-05-21T18:27:38.808Z,20.41
2023-05-21T18:30:07.146Z,20.39
2023-05-21T18:32:34.799Z,20.29
2023-05-21T18:35:02.444Z,20.17
2023-05-21T18:37:29.698Z,20.14
2023-05-21T18:39:56.683Z,20.07
2023-05-21T18:42:23.700Z,20.01
2023-05-21T18:44:51.647Z,19.90
2023-05-21T18:47:18.686Z,19.82
2023-05-21T18:49:45.646Z,19.78
2023-05-21T18:52:12.584Z,19.71
2023-05-21T18:54:39.679Z,19.66
2023-05-21T18:57:06.582Z,19.54
2023-05-21T18:59:33.589Z,19.49
2023-05-21T19:02:00.735Z,19.44
2023-05-21T19:04:27.873Z,19.35
2023-05-21T19:06:55.139Z,19.31
2023-05-21T19:09:22.079Z,19.23
2023-05-21T19:11:49.570Z,19.22
2023-05-21T19:14:16.608Z,19.15
2023-05-21T19:16:43.538Z,19.15
2023-05-21T19:19:10.492Z,19.12
2023-05-21T19:21:37.482Z,19.10
2023-05-21T19:24:05.765Z,19.03
2023-05-21T19:26:33.094Z,18.96
2023-05-21T19:28:59.996Z,18.91
2023-05-21T19:31:27.005Z,18.80
2023-05-21T19:33:54.222Z,18.73
2023-05-21T19:36:21.775Z,18.64
2023-05-21T19:38:50.330Z,18.58
2023-05-21T19:41:18.509Z,18.53
2023-05-21T19:43:46.154Z,18.50
2023-05-21T19:46:15.990Z,18.46
2023-05-21T19:48:45.353Z,18.40
2023-05-21T19:51:13.805Z,18.30
2023-05-21T19:53:40.697Z,18.24
2023-05-21T19:56:07.975Z,18.21
2023-05-21T19:58:34.868Z,18.17
2023-05-21T20:01:03.606Z,18.11
2023-05-21T20:03:35.980Z,18.05
2023-05-21T20:06:03.832Z,17.98
2023-05-21T20:08:31.161Z,17.95
2023-05-21T20:10:58.132Z,17.89
2023-05-21T20:13:25.119Z,17.84
2023-05-21T20:15:52.370Z,17.77
2023-05-21T20:18:22.514Z,17.71
2023-05-21T20:20:49.555Z,17.64
2023-05-21T20:23:16.482Z,17.62
2023-05-21T20:25:43.407Z,17.59
2023-05-21T20:28:10.356Z,17.49
2023-05-21T20:30:58.130Z,17.47
2023-05-21T20:33:27.427Z,17.44
2023-05-21T20:35:54.326Z,17.38
2023-05-21T20:38:21.347Z,17.31
2023-05-21T20:40:48.561Z,17.26
2023-05-21T20:43:15.609Z,17.21
2023-05-21T20:45:43.748Z,17.16
2023-05-21T20:48:12.215Z,17.11
2023-05-21T20:50:41.156Z,17.06
2023-05-21T20:53:08.719Z,17.01
2023-05-21T20:55:35.853Z,16.97
2023-05-21T20:58:04.074Z,16.96
2023-05-21T21:00:33.500Z,16.95
2023-05-21T21:03:04.101Z,16.91
2023-05-21T21:05:31.095Z,16.87
2023-05-21T21:08:02.624Z,16.78
2023-05-21T21:10:29.562Z,16.75
2023-05-21T21:12:56.374Z,16.75
2023-05-21T21:15:23.165Z,16.69
2023-05-21T21:17:50.135Z,16.67
2023-05-21T21:20:18.808Z,16.64
2023-05-21T21:22:45.830Z,16.64
2023-05-21T21:25:14.038Z,16.61
2023-05-21T21:27:41.009Z,16.55
2023-05-21T21:30:08.392Z,16.50
2023-05-21T21:32:35.820Z,16.49
2023-05-21T21:35:02.633Z,16.47
2023-05-21T21:37:29.597Z,16.44
2023-05-21T21:39:56.816Z,16.45
2023-05-21T21:42:24.022Z,16.43
2023-05-21T21:44:50.838Z,16.41
2023-05-21T21:47:17.668Z,16.37
2023-05-21T21:49:44.629Z,16.36
2023-05-21T21:52:12.598Z,16.34
2023-05-21T21:54:39.647Z,16.29
2023-05-21T21:57:06.673Z,16.28
2023-05-21T21:59:34.427Z,16.26
2023-05-21T22:02:01.400Z,16.24
2023-05-21T22:04:28.227Z,16.24
2023-05-21T22:06:55.056Z,16.19
2023-05-21T22:09:24.603Z,16.19
2023-05-21T22:11:52.144Z,16.15
2023-05-21T22:14:19.619Z,16.14
2023-05-21T22:16:47.673Z,16.10
2023-05-21T22:19:16.216Z,16.07
2023-05-21T22:21:43.409Z,16.07
2023-05-21T22:24:24.229Z,16.05
2023-05-21T22:26:57.378Z,16.03
2023-05-21T22:29:24.225Z,16.00
2023-05-21T22:31:51.233Z,15.98
2023-05-21T22:34:18.083Z,15.97
2023-05-21T22:36:46.933Z,15.94
2023-05-21T22:39:13.902Z,15.92
2023-05-21T22:41:40.873Z,15.88
2023-05-21T22:44:07.752Z,15.85
2023-05-21T22:46:35.687Z,15.80
2023-05-21T22:49:03.172Z,15.82
2023-05-21T22:51:34.894Z,15.81
2023-05-21T22:54:01.988Z,15.82
2023-05-21T22:56:29.323Z,15.80
2023-05-21T22:58:56.915Z,15.79
2023-05-21T23:01:24.018Z,15.79
2023-05-21T23:03:51.633Z,15.82
2023-05-21T23:06:18.695Z,15.84
2023-05-21T23:08:45.645Z,15.85
2023-05-21T23:11:12.522Z,15.87
2023-05-21T23:13:39.355Z,15.90
2023-05-21T23:16:07.393Z,15.94
2023-05-21T23:18:35.420Z,15.93
2023-05-21T23:21:02.592Z,15.95
2023-05-21T23:23:29.617Z,16.00
2023-05-21T23:25:57.874Z,16.01
2023-05-21T23:28:25.803Z,15.98
2023-05-21T23:30:53.052Z,16.02
2023-05-21T23:33:20.007Z,16.04
2023-05-21T23:35:46.838Z,16.05
2023-05-21T23:38:13.789Z,15.97
2023-05-21T23:40:40.786Z,15.85
2023-05-21T23:43:07.894Z,15.76
2023-05-21T23:45:34.873Z,15.64
2023-05-21T23:48:01.736Z,15.58
2023-05-21T23:50:28.604Z,15.51
2023-05-21T23:52:55.817Z,15.46
2023-05-21T23:55:22.630Z,15.44
2023-05-21T23:57:49.499Z,15.39
